Time;durP1;ratioP1;P1;durP2;ratioP2;P2;SDS_P1;SDS_P2;PMS_P1;PMS_P2;Temp;Humidity;BMP_temperature;BMP_pressure;BME280_temperature;BME280_humidity;BME280_pressure;Samples;Min_cycle;Max_cycle;Signal;HPM_P1;HPM_P2
2021/12/29 00:01:38;;;;;;;49.00;28.98;;;;;;;5.82;90.25;92744.41;5093331;28;20096;-49
2021/12/29 00:04:04;;;;;;;79.63;27.40;;;;;;;5.95;89.42;92752.59;5111787;28;20118;-52
2021/12/29 00:06:29;;;;;;;48.78;29.10;;;;;;;6.10;87.90;92752.72;5111381;28;20027;-51
2021/12/29 00:08:55;;;;;;;40.13;23.92;;;;;;;6.05;86.84;92728.91;5111369;28;20034;-50
2021/12/29 00:11:22;;;;;;;40.47;25.80;;;;;;;6.23;86.14;92746.41;5111535;28;20019;-52
2021/12/29 00:13:47;;;;;;;34.88;21.77;;;;;;;6.28;85.11;92748.25;5111236;28;20032;-49
2021/12/29 00:16:13;;;;;;;35.60;19.85;;;;;;;6.10;85.09;92749.22;5111562;28;20098;-50
2021/12/29 00:18:38;;;;;;;35.40;21.77;;;;;;;6.30;85.54;92756.69;5111523;28;20027;-52
2021/12/29 00:21:06;;;;;;;34.33;21.20;;;;;;;6.28;86.19;92756.47;5119549;27;20476;-49
2021/12/29 00:23:32;;;;;;;32.88;18.45;;;;;;;6.23;85.28;92729.22;5119557;27;20563;-50
2021/12/29 00:25:58;;;;;;;32.22;19.05;;;;;;;6.35;85.07;92757.81;5119144;27;20011;-48
2021/12/29 00:28:23;;;;;;;27.98;16.48;;;;;;;6.28;85.34;92740.03;5119939;27;20043;-56
2021/12/29 00:30:49;;;;;;;26.05;15.48;;;;;;;6.05;85.74;92709.72;5121273;27;20091;-56
2021/12/29 00:33:15;;;;;;;25.42;15.55;;;;;;;6.25;85.43;92743.84;5121663;27;20016;-55
2021/12/29 00:35:42;;;;;;;33.45;16.75;;;;;;;6.42;84.02;92746.91;5119549;27;20023;-56
2021/12/29 00:38:10;;;;;;;24.33;15.57;;;;;;;6.40;83.38;92749.44;5121200;27;20035;-52
2021/12/29 00:40:37;;;;;;;33.00;19.25;;;;;;;6.23;83.33;92729.22;5130267;27;20026;-55
2021/12/29 00:43:05;;;;;;;30.83;19.83;;;;;;;6.34;82.52;92742.63;5130994;27;20082;-57
2021/12/29 00:45:33;;;;;;;38.28;22.45;;;;;;;6.38;82.86;92748.50;5131649;27;20018;-56
2021/12/29 00:47:59;;;;;;;40.75;23.75;;;;;;;6.29;83.09;92733.28;5131554;27;20027;-57
2021/12/29 00:50:24;;;;;;;50.75;29.42;;;;;;;6.24;83.66;92756.09;5131545;27;20015;-56
2021/12/29 00:52:50;;;;;;;48.22;27.92;;;;;;;6.24;84.79;92752.63;5110725;28;20104;-57
2021/12/29 00:55:17;;;;;;;44.17;26.38;;;;;;;6.28;84.55;92750.28;5092336;28;20030;-57
2021/12/29 00:57:44;;;;;;;50.00;27.77;;;;;;;6.24;84.48;92725.22;5103973;28;20016;-58
2021/12/29 01:00:13;;;;;;;56.55;28.50;;;;;;;6.33;85.32;92725.44;5090161;28;20493;-57
2021/12/29 01:02:39;;;;;;;45.15;23.38;;;;;;;6.44;85.23;92740.88;5090160;28;20444;-54
2021/12/29 01:05:06;;;;;;;46.08;24.92;;;;;;;6.35;85.41;92739.34;5090195;28;20020;-57
2021/12/29 01:07:32;;;;;;;40.63;20.92;;;;;;;6.31;84.75;92721.78;5090196;28;20039;-58
2021/12/29 01:09:59;;;;;;;42.58;22.63;;;;;;;6.41;83.80;92741.97;5090491;28;20024;-58
2021/12/29 01:12:25;;;;;;;80.88;40.90;;;;;;;6.45;83.39;92739.59;5090220;28;20076;-58
2021/12/29 01:14:54;;;;;;;89.38;40.88;;;;;;;6.39;83.27;92742.47;5090043;28;20035;-58
2021/12/29 01:17:21;;;;;;;102.20;44.95;;;;;;;6.15;83.57;92747.63;5090119;28;20103;-58
2021/12/29 01:19:49;;;;;;;120.72;54.60;;;;;;;5.87;85.16;92697.00;5090419;28;20023;-57
2021/12/29 01:22:15;;;;;;;136.82;56.45;;;;;;;6.28;85.16;92737.28;5092552;28;20059;-57
2021/12/29 01:24:42;;;;;;;127.70;44.00;;;;;;;6.30;84.99;92734.75;5110692;28;20044;-58
2021/12/29 01:27:08;;;;;;;96.03;46.50;;;;;;;6.35;84.58;92744.09;5110173;28;20030;-57
2021/12/29 01:29:34;;;;;;;102.25;39.33;;;;;;;6.33;84.61;92733.66;5110634;28;20027;-57
2021/12/29 01:32:00;;;;;;;82.25;35.15;;;;;;;6.29;84.97;92730.53;5110548;28;20690;-57
2021/12/29 01:34:26;;;;;;;113.80;37.67;;;;;;;6.35;84.57;92730.38;5097855;28;20458;-56
2021/12/29 01:36:52;;;;;;;143.45;42.17;;;;;;;6.07;85.58;92723.63;5090157;28;20028;-56
2021/12/29 01:39:19;;;;;;;172.95;56.40;;;;;;;6.06;87.46;92724.88;5090047;28;20420;-55
2021/12/29 01:41:46;;;;;;;163.75;51.70;;;;;;;6.06;87.61;92724.88;5089943;28;20044;-56
2021/12/29 01:44:13;;;;;;;143.27;60.40;;;;;;;5.86;87.72;92676.34;5089842;28;20523;-56
2021/12/29 01:46:39;;;;;;;145.80;52.65;;;;;;;6.18;87.13;92705.41;5089734;28;20021;-57
2021/12/29 01:49:05;;;;;;;184.25;53.70;;;;;;;6.24;86.60;92704.00;5089719;28;20020;-56
2021/12/29 01:51:31;;;;;;;172.20;54.45;;;;;;;6.07;86.54;92712.66;5089612;28;20052;-56
2021/12/29 01:54:23;;;;;;;112.65;48.00;;;;;;;6.11;85.98;92698.63;5090449;28;20074;-55
2021/12/29 01:56:51;;;;;;;139.40;42.33;;;;;;;6.25;84.68;92702.75;5093484;28;20111;-55
2021/12/29 01:59:17;;;;;;;83.47;34.42;;;;;;;6.28;85.37;92698.19;5112597;28;20031;-56
2021/12/29 02:01:43;;;;;;;75.35;31.33;;;;;;;6.25;86.13;92697.25;5114045;28;20030;-54
2021/12/29 02:04:08;;;;;;;80.30;33.65;;;;;;;6.24;86.06;92695.78;5114139;28;20030;-56
2021/12/29 02:06:34;;;;;;;116.97;36.85;;;;;;;6.18;85.57;92683.50;5113831;28;20552;-56
2021/12/29 02:09:00;;;;;;;102.20;38.03;;;;;;;6.31;84.45;92677.91;5113768;28;20016;-55
2021/12/29 02:11:29;;;;;;;134.55;36.78;;;;;;;6.38;84.25;92693.69;5113874;28;20085;-52
2021/12/29 02:14:04;;;;;;;126.80;36.58;;;;;;;6.06;84.29;92686.53;5113750;28;20023;-53
2021/12/29 02:16:30;;;;;;;97.18;32.80;;;;;;;6.13;84.98;92669.41;5113801;28;20023;-54
2021/12/29 02:19:02;;;;;;;78.07;30.10;;;;;;;6.06;86.37;92681.03;5113922;28;20039;-54
2021/12/29 02:21:29;;;;;;;62.50;28.05;;;;;;;6.13;86.45;92676.88;5095483;28;20450;-57
2021/12/29 02:24:17;;;;;;;68.28;26.13;;;;;;;6.03;86.51;92681.41;5113343;28;20411;-55
2021/12/29 02:26:43;;;;;;;59.83;25.45;;;;;;;5.94;86.53;92665.44;5112572;28;20030;-54
2021/12/29 02:29:11;;;;;;;61.55;29.05;;;;;;;5.75;88.39;92665.66;5113320;28;20575;-56
2021/12/29 02:31:37;;;;;;;53.05;26.10;;;;;;;5.75;87.72;92649.22;5113344;28;20027;-58
2021/12/29 02:34:04;;;;;;;47.28;21.85;;;;;;;5.89;86.39;92661.56;5113533;28;20020;-58
2021/12/29 02:36:30;;;;;;;44.70;22.65;;;;;;;5.73;85.42;92632.59;5113431;28;20027;-58
2021/12/29 02:38:56;;;;;;;48.33;23.60;;;;;;;6.04;84.99;92658.22;5113574;28;20484;-57
2021/12/29 02:41:24;;;;;;;42.85;20.92;;;;;;;6.01;84.75;92657.28;5113064;28;20056;-57
2021/12/29 02:43:58;;;;;;;48.55;22.42;;;;;;;6.05;84.28;92646.72;5113092;28;20035;-57
2021/12/29 02:46:23;;;;;;;76.28;24.90;;;;;;;6.08;84.12;92653.13;5113399;28;20051;-56
2021/12/29 02:48:58;;;;;;;191.27;34.58;;;;;;;6.13;84.42;92644.00;5113353;28;20777;-57
2021/12/29 02:51:23;;;;;;;97.57;32.28;;;;;;;6.07;85.08;92630.47;5112875;28;20066;-57
2021/12/29 02:53:49;;;;;;;57.50;29.10;;;;;;;6.20;85.18;92621.38;5112740;28;20016;-57
2021/12/29 02:56:14;;;;;;;48.25;25.25;;;;;;;6.08;84.88;92618.25;5113050;28;20028;-57
2021/12/29 02:58:40;;;;;;;50.67;24.70;;;;;;;6.00;86.21;92601.00;5112451;28;20050;-57
2021/12/29 03:01:09;;;;;;;42.58;21.95;;;;;;;6.20;85.91;92604.22;5094641;28;20053;-58
2021/12/29 03:03:37;;;;;;;35.60;16.42;;;;;;;6.23;85.66;92598.41;5112983;28;20035;-52
2021/12/29 03:06:04;;;;;;;37.92;17.90;;;;;;;5.99;86.31;92594.06;5117930;27;20023;-51
2021/12/29 03:08:29;;;;;;;39.67;20.73;;;;;;;5.99;88.83;92587.84;5122427;27;20033;-50
2021/12/29 03:10:55;;;;;;;60.65;29.33;;;;;;;5.74;88.75;92562.84;5123945;27;20022;-52
2021/12/29 03:13:27;;;;;;;74.65;35.78;;;;;;;5.81;88.48;92595.03;5121159;27;20044;-54
2021/12/29 03:15:53;;;;;;;104.15;44.08;;;;;;;5.89;86.98;92590.34;5126945;27;20034;-51
2021/12/29 03:18:19;;;;;;;106.40;41.95;;;;;;;5.81;86.33;92594.28;5133202;27;20051;-51
2021/12/29 03:20:45;;;;;;;154.40;49.50;;;;;;;5.83;86.09;92591.75;5133199;27;20049;-53
2021/12/29 03:23:12;;;;;;;77.97;37.28;;;;;;;5.92;85.56;92599.50;5132829;27;20031;-50
2021/12/29 03:25:37;;;;;;;72.88;38.63;;;;;;;5.82;85.77;92584.81;5132717;27;20020;-50
2021/12/29 03:28:04;;;;;;;80.22;36.70;;;;;;;5.66;86.05;92567.53;5132796;27;20031;-51
2021/12/29 03:30:35;;;;;;;62.47;33.22;;;;;;;5.75;86.41;92593.69;5133011;27;20054;-51
2021/12/29 03:33:04;;;;;;;64.68;34.00;;;;;;;5.83;86.62;92600.69;5131984;27;20027;-52
2021/12/29 03:35:40;;;;;;;57.75;28.63;;;;;;;5.74;87.10;92592.97;5091843;28;20032;-51
2021/12/29 03:38:09;;;;;;;43.83;22.13;;;;;;;5.85;88.20;92600.19;5091753;28;20031;-53
2021/12/29 03:40:35;;;;;;;37.10;19.85;;;;;;;5.91;88.48;92600.78;5091680;28;20547;-55
2021/12/29 03:43:01;;;;;;;43.58;23.50;;;;;;;5.81;89.02;92600.50;5095059;28;20035;-56
2021/12/29 03:45:27;;;;;;;39.80;18.30;;;;;;;5.73;89.79;92590.78;5111811;28;20059;-57
2021/12/29 03:47:52;;;;;;;33.13;17.25;;;;;;;5.63;91.43;92590.50;5111877;28;20074;-55
2021/12/29 03:50:18;;;;;;;27.92;15.63;;;;;;;5.66;92.64;92597.66;5111846;28;20019;-51
2021/12/29 03:52:44;;;;;;;29.70;15.50;;;;;;;5.51;93.20;92578.41;5111687;28;20124;-50
2021/12/29 03:55:09;;;;;;;22.92;14.07;;;;;;;5.72;93.02;92589.28;5111641;28;20572;-49
2021/12/29 03:57:35;;;;;;;29.15;16.10;;;;;;;5.63;93.37;92582.28;5111200;28;20024;-48
2021/12/29 04:00:02;;;;;;;38.28;16.45;;;;;;;5.66;93.35;92594.19;5111599;28;20051;-49
2021/12/29 04:02:28;;;;;;;31.00;16.20;;;;;;;5.63;93.61;92595.28;5111908;28;20085;-48
2021/12/29 04:04:54;;;;;;;26.38;15.10;;;;;;;5.64;93.79;92585.78;5111871;28;20024;-48
2021/12/29 04:07:19;;;;;;;28.30;15.82;;;;;;;5.76;93.53;92592.44;5111673;28;20036;-50
2021/12/29 04:09:45;;;;;;;29.10;16.92;;;;;;;5.79;92.84;92586.63;5111772;28;20028;-47
2021/12/29 04:12:10;;;;;;;53.55;21.08;;;;;;;5.78;92.41;92595.38;5111296;28;20420;-49
2021/12/29 04:14:36;;;;;;;37.47;20.30;;;;;;;5.67;92.21;92579.22;5111679;28;20023;-51
2021/12/29 04:17:09;;;;;;;41.13;20.33;;;;;;;5.95;91.24;92599.16;5111057;28;20043;-50
2021/12/29 04:22:20;;;;;;;44.15;24.45;;;;;;;5.75;89.98;92553.34;5111541;28;20038;-50
2021/12/29 04:24:45;;;;;;;48.40;27.73;;;;;;;6.08;89.52;92573.66;5111229;28;20028;-49
2021/12/29 04:27:11;;;;;;;43.83;25.38;;;;;;;6.22;88.61;92587.94;5111350;28;20055;-51
2021/12/29 04:29:36;;;;;;;40.53;23.45;;;;;;;5.99;88.19;92561.19;5110943;28;20078;-53
2021/12/29 04:32:02;;;;;;;41.55;23.60;;;;;;;6.31;87.87;92592.94;5092820;28;20049;-51
2021/12/29 04:34:27;;;;;;;35.72;21.02;;;;;;;6.38;87.49;92586.75;5110968;28;20038;-58
2021/12/29 04:36:53;;;;;;;45.30;23.15;;;;;;;6.39;87.18;92590.97;5110900;28;20077;-58
2021/12/29 04:39:18;;;;;;;35.10;19.95;;;;;;;6.30;87.93;92580.50;5111074;28;20027;-59
2021/12/29 04:41:44;;;;;;;31.92;18.98;;;;;;;6.34;87.95;92576.16;5110912;28;20031;-48
2021/12/29 04:44:09;;;;;;;35.72;20.63;;;;;;;6.26;87.92;92577.41;5110793;28;20058;-47
2021/12/29 04:46:40;;;;;;;37.15;19.73;;;;;;;6.26;87.96;92572.63;5110845;28;20023;-48
2021/12/29 04:49:09;;;;;;;44.33;24.55;;;;;;;6.37;87.55;92571.56;5110801;28;20035;-48
2021/12/29 04:51:35;;;;;;;43.85;25.13;;;;;;;6.35;87.49;92577.59;5110501;28;20138;-47
2021/12/29 04:54:06;;;;;;;59.25;21.40;;;;;;;6.43;86.84;92572.88;5110919;28;20094;-48
2021/12/29 04:56:32;;;;;;;41.10;24.63;;;;;;;6.28;86.91;92561.84;5122154;27;20023;-49
2021/12/29 04:58:57;;;;;;;33.72;19.30;;;;;;;6.43;87.40;92570.13;5113783;27;20134;-52
2021/12/29 05:01:23;;;;;;;39.72;21.65;;;;;;;6.40;87.75;92575.97;5121124;27;20393;-49
2021/12/29 05:03:49;;;;;;;39.30;22.25;;;;;;;6.43;87.95;92572.16;5131080;27;20019;-51
2021/12/29 05:08:40;;;;;;;35.42;22.63;;;;;;;6.59;87.04;92587.38;5131102;28;20019;-51
2021/12/29 05:11:08;;;;;;;30.13;17.08;;;;;;;6.51;86.96;92583.88;5131351;28;20481;-49
2021/12/29 05:13:37;;;;;;;25.83;16.57;;;;;;;6.42;86.67;92567.94;5130993;28;20079;-49
2021/12/29 05:16:03;;;;;;;29.10;16.27;;;;;;;6.61;86.28;92585.56;5130863;28;20027;-49
2021/12/29 05:18:31;;;;;;;43.35;22.13;;;;;;;6.55;86.16;92587.75;5131205;28;20091;-54
2021/12/29 05:20:58;;;;;;;54.88;26.45;;;;;;;6.59;86.27;92587.38;5130896;28;20519;-56
2021/12/29 05:23:24;;;;;;;39.20;20.77;;;;;;;6.25;87.41;92573.91;5131058;28;20098;-56
2021/12/29 05:25:50;;;;;;;28.08;17.23;;;;;;;6.30;87.88;92586.00;5130862;28;20651;-52
2021/12/29 05:28:19;;;;;;;28.65;17.08;;;;;;;6.45;87.99;92589.53;5130827;27;20027;-54
2021/12/29 05:30:46;;;;;;;25.58;16.13;;;;;;;6.38;87.69;92565.56;5134790;27;20027;-54
2021/12/29 05:33:12;;;;;;;49.60;28.02;;;;;;;6.55;86.82;92587.75;5117077;27;20085;-53
2021/12/29 05:35:37;;;;;;;20.77;12.45;;;;;;;6.58;86.86;92586.63;5114394;28;20032;-50
2021/12/29 05:38:03;;;;;;;31.38;16.83;;;;;;;6.53;87.04;92586.81;5116752;27;20016;-53
2021/12/29 05:40:29;;;;;;;28.65;15.70;;;;;;;6.34;87.01;92550.75;5135134;27;20098;-58
2021/12/29 05:42:55;;;;;;;37.30;21.15;;;;;;;6.66;86.21;92590.16;5120388;27;20466;-58
2021/12/29 05:45:23;;;;;;;34.28;18.33;;;;;;;6.58;86.36;92585.94;5098656;27;20090;-58
2021/12/29 05:47:49;;;;;;;32.15;18.15;;;;;;;6.55;86.16;92585.00;5134740;27;20035;-59
2021/12/29 05:50:18;;;;;;;28.05;17.13;;;;;;;6.61;85.97;92593.03;5134924;27;20082;-58
2021/12/29 05:52:43;;;;;;;55.70;30.15;;;;;;;6.50;85.76;92585.16;5115110;27;20047;-58
2021/12/29 05:55:09;;;;;;;51.78;27.20;;;;;;;6.69;85.61;92602.75;5113935;28;20424;-58
2021/12/29 05:57:35;;;;;;;49.15;25.05;;;;;;;6.63;85.49;92598.72;5107568;28;20031;-59
2021/12/29 06:00:03;;;;;;;44.70;25.15;;;;;;;6.68;85.15;92611.53;5093838;28;20559;-59
2021/12/29 06:02:28;;;;;;;40.17;23.88;;;;;;;6.71;84.36;92610.47;5113515;28;20026;-59
2021/12/29 06:04:54;;;;;;;32.60;20.02;;;;;;;6.75;84.30;92627.31;5114127;28;20110;-59
2021/12/29 06:07:19;;;;;;;40.25;24.05;;;;;;;6.53;85.04;92622.47;5113703;28;20019;-58
2021/12/29 06:09:45;;;;;;;46.55;25.52;;;;;;;6.57;85.18;92615.34;5113800;28;20019;-58
2021/12/29 06:12:10;;;;;;;35.13;20.83;;;;;;;6.67;85.13;92635.50;5113706;28;20024;-58
2021/12/29 06:14:36;;;;;;;39.13;24.17;;;;;;;6.63;85.38;92631.63;5113752;28;20115;-57
2021/12/29 06:17:01;;;;;;;52.17;31.70;;;;;;;6.16;86.85;92623.00;5113482;28;20027;-57
2021/12/29 06:19:27;;;;;;;113.03;69.22;;;;;;;6.08;88.96;92622.97;5113855;28;20020;-58
2021/12/29 06:21:52;;;;;;;79.60;48.13;;;;;;;6.17;88.85;92624.50;5113492;28;20079;-58
2021/12/29 06:24:18;;;;;;;81.78;47.80;;;;;;;6.36;87.51;92639.41;5093841;28;20035;-58
2021/12/29 06:26:43;;;;;;;74.35;46.00;;;;;;;6.52;86.23;92646.41;5093377;28;20012;-58
2021/12/29 06:29:09;;;;;;;59.88;37.40;;;;;;;6.38;86.99;92642.31;5093280;28;20112;-57
2021/12/29 06:31:35;;;;;;;55.70;34.97;;;;;;;6.46;87.10;92631.38;5092934;28;20103;-57
2021/12/29 06:34:02;;;;;;;41.42;25.27;;;;;;;6.35;87.43;92645.41;5093121;28;20107;-56
2021/12/29 06:36:28;;;;;;;39.53;22.13;;;;;;;6.26;88.50;92640.44;5093163;28;20031;-56
2021/12/29 06:38:53;;;;;;;32.63;21.45;;;;;;;6.42;88.02;92645.44;5092628;28;20470;-54
2021/12/29 06:41:19;;;;;;;125.93;76.30;;;;;;;6.23;87.88;92634.03;5091591;28;20021;-56
2021/12/29 06:43:44;;;;;;;63.83;41.60;;;;;;;6.13;89.45;92640.53;5097429;28;20045;-50
2021/12/29 06:46:10;;;;;;;40.78;24.05;;;;;;;6.16;89.49;92642.94;5113276;28;20027;-51
2021/12/29 06:48:35;;;;;;;40.00;24.02;;;;;;;6.31;89.01;92639.53;5112998;28;20509;-51
2021/12/29 06:51:01;;;;;;;38.92;22.63;;;;;;;6.43;87.75;92637.97;5113048;28;20043;-53
2021/12/29 06:53:29;;;;;;;52.83;29.98;;;;;;;6.49;87.38;92635.78;5113203;28;20068;-51
2021/12/29 06:55:55;;;;;;;50.60;29.17;;;;;;;6.50;87.46;92640.00;5113116;28;20103;-52
2021/12/29 06:58:21;;;;;;;28.33;18.55;;;;;;;6.30;88.22;92640.81;5100998;28;20080;-50
2021/12/29 07:00:46;;;;;;;40.05;24.30;;;;;;;6.24;89.54;92637.50;5092415;28;20468;-50
2021/12/29 07:03:12;;;;;;;27.83;16.35;;;;;;;6.07;90.19;92633.19;5110204;28;20034;-51
2021/12/29 07:05:37;;;;;;;30.58;19.75;;;;;;;6.07;90.89;92643.41;5112681;28;20026;-48
2021/12/29 07:08:03;;;;;;;29.33;21.13;;;;;;;6.09;91.39;92636.13;5112900;28;20023;-49
2021/12/29 07:10:29;;;;;;;16.50;10.77;;;;;;;6.21;90.62;92628.34;5112572;28;20449;-53
2021/12/29 07:12:54;;;;;;;21.88;13.55;;;;;;;6.19;90.20;92628.16;5107872;28;20102;-50
2021/12/29 07:15:20;;;;;;;23.73;15.80;;;;;;;6.21;90.49;92619.38;5099745;28;20035;-53
2021/12/29 07:17:46;;;;;;;24.52;17.67;;;;;;;6.20;89.59;92607.69;5102827;28;20057;-54
2021/12/29 07:20:11;;;;;;;21.90;14.45;;;;;;;6.49;88.79;92638.53;5101627;28;20023;-57
2021/12/29 07:22:37;;;;;;;35.53;16.80;;;;;;;6.45;87.83;92608.00;5104097;28;20027;-56
2021/12/29 07:25:03;;;;;;;12.75;9.35;;;;;;;6.70;87.40;92633.69;5092332;28;20493;-50
2021/12/29 07:27:29;;;;;;;18.90;13.05;;;;;;;6.35;87.43;92602.28;5093536;28;20055;-56
2021/12/29 07:29:55;;;;;;;16.08;8.43;;;;;;;6.49;88.28;92619.34;5092390;28;20063;-54
2021/12/29 07:32:20;;;;;;;31.77;11.35;;;;;;;6.65;87.96;92637.31;5090261;28;20382;-56
2021/12/29 07:34:46;;;;;;;23.83;14.52;;;;;;;6.73;87.47;92649.06;5090081;28;20082;-54
2021/12/29 07:37:12;;;;;;;18.02;11.27;;;;;;;6.84;86.91;92651.47;5090305;28;20480;-57
2021/12/29 07:39:38;;;;;;;14.80;9.45;;;;;;;6.52;86.49;92605.25;5090157;28;20428;-55
2021/12/29 07:42:04;;;;;;;13.10;8.95;;;;;;;6.84;86.39;92654.94;5089804;28;20016;-54
2021/12/29 07:44:30;;;;;;;16.52;11.55;;;;;;;6.78;86.26;92640.66;5090104;28;20095;-56
2021/12/29 07:46:58;;;;;;;16.65;12.30;;;;;;;6.86;85.99;92626.97;5089973;28;20081;-55
2021/12/29 07:49:25;;;;;;;15.63;9.13;;;;;;;7.14;85.51;92635.09;5090084;28;20508;-55
2021/12/29 07:51:51;;;;;;;15.05;10.27;;;;;;;6.99;86.06;92648.78;5091223;28;20102;-52
2021/12/29 07:54:17;;;;;;;12.48;9.82;;;;;;;7.17;85.90;92642.22;5091614;28;20032;-49
2021/12/29 07:56:43;;;;;;;14.32;10.95;;;;;;;7.24;85.04;92630.53;5091358;28;20504;-51
2021/12/29 07:59:08;;;;;;;22.48;16.58;;;;;;;7.29;84.67;92640.59;5087722;28;20020;-61
2021/12/29 08:01:34;;;;;;;22.98;16.35;;;;;;;7.37;84.18;92635.13;5102995;28;20026;-50
2021/12/29 08:04:01;;;;;;;18.67;12.07;;;;;;;7.33;83.39;92612.78;5093679;28;20031;-56
2021/12/29 08:06:27;;;;;;;20.08;11.93;;;;;;;7.55;83.05;92640.28;5111491;28;20062;-57
2021/12/29 08:08:53;;;;;;;14.38;10.30;;;;;;;7.60;82.84;92638.63;5085119;28;20467;-57
2021/12/29 08:11:20;;;;;;;16.05;11.50;;;;;;;7.63;82.73;92649.25;5089111;28;20519;-57
2021/12/29 08:13:46;;;;;;;18.63;13.02;;;;;;;7.70;82.76;92645.03;5090667;28;20107;-58
2021/12/29 08:16:12;;;;;;;19.75;11.38;;;;;;;7.76;82.38;92650.34;5072273;28;20032;-57
2021/12/29 08:18:38;;;;;;;13.65;9.20;;;;;;;7.71;82.75;92656.75;5089938;28;20520;-57
2021/12/29 08:21:04;;;;;;;18.15;11.65;;;;;;;7.68;82.47;92658.59;5088393;28;20513;-54
2021/12/29 08:23:31;;;;;;;15.38;9.18;;;;;;;7.61;82.12;92638.06;5088494;28;20026;-56
2021/12/29 08:25:57;;;;;;;15.23;10.40;;;;;;;7.64;82.60;92650.69;5089668;28;20119;-50
2021/12/29 08:28:23;;;;;;;15.50;10.52;;;;;;;7.59;82.62;92639.91;5088935;28;20023;-53
2021/12/29 08:30:49;;;;;;;14.25;10.20;;;;;;;7.71;82.58;92651.97;5089036;28;20123;-50
2021/12/29 08:33:15;;;;;;;15.15;10.27;;;;;;;7.32;82.74;92625.78;5086943;28;20020;-55
2021/12/29 08:35:40;;;;;;;38.13;24.38;;;;;;;7.17;84.64;92661.44;5089689;28;20027;-51
2021/12/29 08:38:06;;;;;;;24.73;18.15;;;;;;;7.23;85.46;92653.03;5089765;28;20024;-52
2021/12/29 08:40:32;;;;;;;23.42;15.55;;;;;;;7.33;85.11;92651.97;5089330;28;20457;-53
2021/12/29 08:42:59;;;;;;;16.25;11.15;;;;;;;7.32;84.42;92641.53;5089421;28;20016;-52
2021/12/29 08:45:26;;;;;;;18.98;12.50;;;;;;;7.44;83.84;92646.13;5089138;28;20015;-49
2021/12/29 08:47:54;;;;;;;13.88;9.30;;;;;;;7.60;83.27;92649.63;5089227;28;20027;-47
2021/12/29 08:50:20;;;;;;;14.70;10.60;;;;;;;7.62;83.33;92647.75;5089191;28;20081;-50
2021/12/29 08:52:45;;;;;;;32.55;17.88;;;;;;;7.53;83.19;92620.88;5087041;28;20059;-51
2021/12/29 08:55:12;;;;;;;42.08;24.58;;;;;;;7.72;83.10;92639.72;5097568;28;20035;-51
2021/12/29 08:57:38;;;;;;;42.60;25.02;;;;;;;7.72;82.73;92636.22;5104567;28;20047;-52
2021/12/29 09:00:06;;;;;;;31.70;18.77;;;;;;;7.44;83.74;92629.63;5090425;28;20077;-61
2021/12/29 09:02:32;;;;;;;7.97;5.20;;;;;;;7.53;83.49;92634.59;5090207;28;20020;-53
2021/12/29 09:04:57;;;;;;;14.32;9.95;;;;;;;7.41;83.48;92627.97;5089889;28;20039;-56
2021/12/29 09:07:23;;;;;;;31.25;16.35;;;;;;;7.38;83.49;92639.34;5090077;28;20511;-53
2021/12/29 09:09:49;;;;;;;47.85;23.52;;;;;;;7.25;84.31;92623.75;5090478;28;20020;-59
2021/12/29 09:12:14;;;;;;;14.90;9.15;;;;;;;7.03;85.48;92635.44;5090523;28;20513;-58
2021/12/29 09:14:40;;;;;;;10.02;7.82;;;;;;;6.96;86.37;92625.16;5089883;28;20485;-54
2021/12/29 09:17:05;;;;;;;18.67;11.20;;;;;;;6.94;86.29;92621.50;5090575;28;20096;-56
2021/12/29 09:19:34;;;;;;;10.80;9.13;;;;;;;7.12;85.90;92615.69;5089998;28;20486;-57
2021/12/29 09:21:59;;;;;;;10.65;9.38;;;;;;;7.17;85.55;92620.25;5090095;28;20030;-49
2021/12/29 09:24:25;;;;;;;12.73;9.23;;;;;;;7.28;84.74;92622.66;5090072;28;20115;-50
2021/12/29 09:26:51;;;;;;;15.25;9.65;;;;;;;7.36;84.35;92615.16;5089764;28;20089;-48
2021/12/29 09:29:16;;;;;;;13.98;8.65;;;;;;;7.31;84.78;92618.81;5089145;28;20452;-57
2021/12/29 09:31:42;;;;;;;12.82;8.90;;;;;;;7.26;85.03;92616.97;5090026;28;20024;-58
2021/12/29 09:34:07;;;;;;;15.85;10.70;;;;;;;7.05;85.13;92588.97;5090015;28;20024;-59
2021/12/29 09:36:33;;;;;;;11.88;9.55;;;;;;;7.37;84.69;92618.63;5090171;28;20456;-59
2021/12/29 09:39:00;;;;;;;10.10;8.15;;;;;;;7.33;84.13;92602.53;5090197;28;20502;-59
2021/12/29 09:41:26;;;;;;;10.20;7.38;;;;;;;7.50;84.08;92613.72;5089751;28;20027;-59
2021/12/29 09:43:52;;;;;;;19.70;11.73;;;;;;;7.48;84.13;92610.78;5089919;28;20032;-62
2021/12/29 09:46:18;;;;;;;29.23;18.02;;;;;;;7.30;84.54;92608.38;5089570;28;20039;-57
2021/12/29 09:48:45;;;;;;;15.50;12.25;;;;;;;7.06;85.89;92604.13;5089856;28;20028;-56
2021/12/29 09:51:11;;;;;;;11.43;9.45;;;;;;;7.07;86.30;92613.09;5095654;28;20112;-58
2021/12/29 09:53:38;;;;;;;11.77;8.05;;;;;;;6.72;86.97;92559.81;5110299;28;20046;-59
2021/12/29 09:56:04;;;;;;;8.63;6.70;;;;;;;7.10;86.38;92599.03;5109943;28;20081;-60
2021/12/29 09:58:30;;;;;;;14.88;9.93;;;;;;;7.05;85.99;92577.25;5110412;28;20027;-58
2021/12/29 10:25:00;;;;;;;12.90;9.05;;;;;;;7.50;84.71;92589.00;5093372;28;20089;-60
2021/12/29 10:27:29;;;;;;;11.57;7.85;;;;;;;7.44;84.68;92579.47;5093257;28;20028;-61
2021/12/29 10:29:55;;;;;;;8.25;6.28;;;;;;;7.49;84.79;92582.03;5093105;28;20032;-60
2021/12/29 10:32:24;;;;;;;10.07;5.63;;;;;;;7.54;84.26;92572.88;5093375;28;20035;-60
2021/12/29 10:34:51;;;;;;;8.60;6.18;;;;;;;7.61;84.51;92577.63;5108731;28;20031;-60
2021/12/29 10:37:17;;;;;;;10.93;6.47;;;;;;;7.53;84.46;92554.94;5113407;28;20416;-60
2021/12/29 10:39:48;;;;;;;9.25;7.03;;;;;;;7.60;84.39;92569.94;5113504;28;20024;-60
2021/12/29 10:42:13;;;;;;;11.90;7.57;;;;;;;7.63;84.29;92566.09;5113465;28;20020;-59
2021/12/29 10:44:51;;;;;;;8.85;7.50;;;;;;;7.63;84.13;92558.59;5113266;28;20100;-60
2021/12/29 10:47:28;;;;;;;14.07;7.60;;;;;;;7.57;84.57;92557.31;5113065;28;20035;-60
2021/12/29 10:49:55;;;;;;;25.23;14.05;;;;;;;7.55;85.37;92552.38;5113105;28;20657;-59
2021/12/29 10:52:43;;;;;;;14.00;9.50;;;;;;;7.56;85.26;92548.34;5112801;28;20052;-60
2021/12/29 10:55:34;;;;;;;11.00;6.15;;;;;;;7.26;85.67;92509.91;5113034;28;20023;-59
2021/12/29 10:58:08;;;;;;;4.80;3.83;;;;;;;7.38;85.86;92515.78;5112601;28;20024;-59
2021/12/29 11:00:39;;;;;;;4.43;3.40;;;;;;;7.35;85.52;92523.09;5112849;28;20522;-59
2021/12/29 11:03:17;;;;;;;6.13;3.92;;;;;;;7.27;85.77;92502.41;5112883;28;20019;-59
2021/12/29 11:05:47;;;;;;;4.00;3.60;;;;;;;7.38;85.56;92508.28;5112721;28;20389;-59
2021/12/29 11:08:13;;;;;;;8.13;4.30;;;;;;;7.28;86.31;92504.59;5112644;28;20035;-59
2021/12/29 11:10:39;;;;;;;8.10;4.80;;;;;;;7.11;86.72;92482.47;5112554;28;20030;-59
2021/12/29 11:13:04;;;;;;;6.50;4.50;;;;;;;7.27;86.08;92500.41;5111872;28;20027;-59
2021/12/29 11:15:34;;;;;;;7.47;2.75;;;;;;;7.20;85.89;92492.91;5111988;28;20102;-59
2021/12/29 11:18:04;;;;;;;10.82;5.25;;;;;;;7.21;86.58;92490.88;5094385;28;20032;-59
2021/12/29 11:20:31;;;;;;;6.50;3.70;;;;;;;7.25;86.15;92477.53;5104866;28;20136;-59
2021/12/29 11:23:19;;;;;;;5.03;3.70;;;;;;;7.20;86.06;92484.66;5092265;28;20039;-58
2021/12/29 11:25:45;;;;;;;23.67;15.25;;;;;;;7.26;87.00;92476.97;5092015;28;20016;-59
2021/12/29 11:28:29;;;;;;;32.90;20.05;;;;;;;7.35;87.17;92476.41;5091336;28;20028;-59
2021/12/29 11:30:56;;;;;;;21.88;13.65;;;;;;;7.43;87.17;92473.63;5091958;28;20035;-59
2021/12/29 11:33:22;;;;;;;11.73;9.02;;;;;;;7.38;87.59;92469.09;5095320;28;20432;-58
2021/12/29 11:35:50;;;;;;;14.73;10.32;;;;;;;7.45;87.16;92455.34;5112037;28;20161;-59
2021/12/29 11:38:18;;;;;;;14.88;9.88;;;;;;;7.53;86.67;92449.84;5112178;28;20019;-58
2021/12/29 11:40:47;;;;;;;6.03;4.38;;;;;;;7.80;85.45;92466.59;5112031;28;20027;-58
2021/12/29 11:43:17;;;;;;;6.45;4.38;;;;;;;7.86;85.26;92469.88;5111820;28;20026;-58
2021/12/29 11:45:44;;;;;;;10.43;6.47;;;;;;;7.76;84.89;92461.47;5113379;28;20447;-58
2021/12/29 11:48:11;;;;;;;10.00;6.68;;;;;;;7.70;85.33;92457.47;5111864;28;20076;-58
2021/12/29 11:50:40;;;;;;;10.27;7.82;;;;;;;7.80;85.05;92448.09;5111638;28;20023;-58
2021/12/29 11:53:28;;;;;;;7.47;4.60;;;;;;;7.94;84.71;92462.34;5112110;28;20556;-57
2021/12/29 11:55:59;;;;;;;7.53;5.57;;;;;;;8.00;84.79;92457.38;5112080;28;20102;-57